sensor_id;sensor_type;location;lat;lon;timestamp;P1;durP1;ratioP1;P2;durP2;ratioP2
6860;SDS011;3469;47.060;15.460;2023-02-28T00:01:46;7.13;;;5.07;;
6860;SDS011;3469;47.060;15.460;2023-02-28T00:04:14;6.03;;;4.97;;
6860;SDS011;3469;47.060;15.460;2023-02-28T00:06:42;7.30;;;4.97;;
6860;SDS011;3469;47.060;15.460;2023-02-28T00:09:12;8.10;;;5.63;;
6860;SDS011;3469;47.060;15.460;2023-02-28T00:11:40;6.80;;;5.50;;
6860;SDS011;3469;47.060;15.460;2023-02-28T00:14:09;5.88;;;4.80;;
6860;SDS011;3469;47.060;15.460;2023-02-28T00:16:37;8.53;;;5.30;;
6860;SDS011;3469;47.060;15.460;2023-02-28T00:19:05;8.87;;;4.97;;
6860;SDS011;3469;47.060;15.460;2023-02-28T00:21:33;5.88;;;5.20;;
6860;SDS011;3469;47.060;15.460;2023-02-28T00:24:02;7.03;;;5.57;;
6860;SDS011;3469;47.060;15.460;2023-02-28T00:26:32;9.63;;;5.30;;
6860;SDS011;3469;47.060;15.460;2023-02-28T00:29:00;6.20;;;5.33;;
6860;SDS011;3469;47.060;15.460;2023-02-28T00:31:28;8.53;;;5.50;;
6860;SDS011;3469;47.060;15.460;2023-02-28T00:33:57;9.03;;;5.57;;
6860;SDS011;3469;47.060;15.460;2023-02-28T00:36:25;6.50;;;5.07;;
6860;SDS011;3469;47.060;15.460;2023-02-28T00:38:53;6.50;;;5.70;;
6860;SDS011;3469;47.060;15.460;2023-02-28T00:41:22;7.40;;;5.37;;
6860;SDS011;3469;47.060;15.460;2023-02-28T00:43:51;8.33;;;5.63;;
6860;SDS011;3469;47.060;15.460;2023-02-28T00:46:20;8.40;;;6.25;;
6860;SDS011;3469;47.060;15.460;2023-02-28T00:48:49;5.57;;;5.00;;
6860;SDS011;3469;47.060;15.460;2023-02-28T00:51:18;7.07;;;4.60;;
6860;SDS011;3469;47.060;15.460;2023-02-28T00:53:46;5.80;;;5.10;;
6860;SDS011;3469;47.060;15.460;2023-02-28T00:56:16;8.00;;;4.30;;
6860;SDS011;3469;47.060;15.460;2023-02-28T00:58:46;7.10;;;5.27;;
6860;SDS011;3469;47.060;15.460;2023-02-28T01:01:16;7.47;;;5.68;;
6860;SDS011;3469;47.060;15.460;2023-02-28T01:03:44;5.65;;;3.92;;
6860;SDS011;3469;47.060;15.460;2023-02-28T01:06:13;6.33;;;4.90;;
6860;SDS011;3469;47.060;15.460;2023-02-28T01:08:41;8.20;;;5.93;;
6860;SDS011;3469;47.060;15.460;2023-02-28T01:11:10;6.33;;;5.20;;
6860;SDS011;3469;47.060;15.460;2023-02-28T01:13:40;8.10;;;4.68;;
6860;SDS011;3469;47.060;15.460;2023-02-28T01:16:11;5.67;;;3.60;;
6860;SDS011;3469;47.060;15.460;2023-02-28T01:18:41;8.00;;;5.30;;
6860;SDS011;3469;47.060;15.460;2023-02-28T01:21:10;6.40;;;4.90;;
6860;SDS011;3469;47.060;15.460;2023-02-28T01:23:40;8.97;;;6.70;;
6860;SDS011;3469;47.060;15.460;2023-02-28T01:26:10;7.17;;;6.00;;
6860;SDS011;3469;47.060;15.460;2023-02-28T01:28:40;6.07;;;4.70;;
6860;SDS011;3469;47.060;15.460;2023-02-28T01:31:09;6.30;;;5.23;;
6860;SDS011;3469;47.060;15.460;2023-02-28T01:33:37;9.20;;;5.77;;
6860;SDS011;3469;47.060;15.460;2023-02-28T01:36:09;6.90;;;6.20;;
6860;SDS011;3469;47.060;15.460;2023-02-28T01:38:39;7.50;;;5.83;;
6860;SDS011;3469;47.060;15.460;2023-02-28T01:41:10;6.17;;;5.53;;
6860;SDS011;3469;47.060;15.460;2023-02-28T01:43:53;7.80;;;5.55;;
6860;SDS011;3469;47.060;15.460;2023-02-28T01:46:23;8.93;;;6.13;;
6860;SDS011;3469;47.060;15.460;2023-02-28T01:48:53;6.53;;;5.60;;
6860;SDS011;3469;47.060;15.460;2023-02-28T01:51:25;5.87;;;5.20;;
6860;SDS011;3469;47.060;15.460;2023-02-28T01:53:56;6.72;;;5.70;;
6860;SDS011;3469;47.060;15.460;2023-02-28T01:56:27;8.93;;;6.53;;
6860;SDS011;3469;47.060;15.460;2023-02-28T01:58:58;6.47;;;5.73;;
6860;SDS011;3469;47.060;15.460;2023-02-28T02:01:27;8.00;;;5.40;;
6860;SDS011;3469;47.060;15.460;2023-02-28T02:04:00;9.70;;;6.30;;
6860;SDS011;3469;47.060;15.460;2023-02-28T02:06:34;7.00;;;5.50;;
6860;SDS011;3469;47.060;15.460;2023-02-28T02:09:06;6.53;;;5.87;;
6860;SDS011;3469;47.060;15.460;2023-02-28T02:11:34;7.70;;;5.90;;
6860;SDS011;3469;47.060;15.460;2023-02-28T02:14:09;7.40;;;5.60;;
6860;SDS011;3469;47.060;15.460;2023-02-28T02:16:47;7.57;;;5.90;;
6860;SDS011;3469;47.060;15.460;2023-02-28T02:19:28;9.00;;;6.30;;
6860;SDS011;3469;47.060;15.460;2023-02-28T02:22:14;11.17;;;6.93;;
6860;SDS011;3469;47.060;15.460;2023-02-28T02:25:04;6.90;;;6.20;;
6860;SDS011;3469;47.060;15.460;2023-02-28T02:27:46;7.23;;;5.90;;
6860;SDS011;3469;47.060;15.460;2023-02-28T02:33:17;10.83;;;6.40;;
6860;SDS011;3469;47.060;15.460;2023-02-28T02:35:55;6.93;;;6.22;;
6860;SDS011;3469;47.060;15.460;2023-02-28T02:38:29;8.90;;;5.63;;
6860;SDS011;3469;47.060;15.460;2023-02-28T02:41:03;7.80;;;5.50;;
6860;SDS011;3469;47.060;15.460;2023-02-28T02:43:35;6.33;;;5.70;;
6860;SDS011;3469;47.060;15.460;2023-02-28T02:46:06;7.30;;;6.13;;
6860;SDS011;3469;47.060;15.460;2023-02-28T02:48:37;9.70;;;6.30;;
6860;SDS011;3469;47.060;15.460;2023-02-28T02:51:10;10.50;;;6.27;;
6860;SDS011;3469;47.060;15.460;2023-02-28T02:53:42;8.40;;;7.07;;
6860;SDS011;3469;47.060;15.460;2023-02-28T02:56:12;8.20;;;6.47;;
6860;SDS011;3469;47.060;15.460;2023-02-28T02:58:41;7.40;;;6.70;;
6860;SDS011;3469;47.060;15.460;2023-02-28T03:01:11;9.57;;;7.40;;
6860;SDS011;3469;47.060;15.460;2023-02-28T03:03:42;9.33;;;6.70;;
6860;SDS011;3469;47.060;15.460;2023-02-28T03:06:14;11.25;;;7.05;;
6860;SDS011;3469;47.060;15.460;2023-02-28T03:08:42;7.97;;;6.70;;
6860;SDS011;3469;47.060;15.460;2023-02-28T03:11:12;12.10;;;7.80;;
6860;SDS011;3469;47.060;15.460;2023-02-28T03:13:52;9.03;;;5.70;;
6860;SDS011;3469;47.060;15.460;2023-02-28T03:16:33;8.77;;;6.30;;
6860;SDS011;3469;47.060;15.460;2023-02-28T03:19:21;11.67;;;6.73;;
6860;SDS011;3469;47.060;15.460;2023-02-28T03:21:59;10.67;;;7.70;;
6860;SDS011;3469;47.060;15.460;2023-02-28T03:24:35;9.50;;;6.20;;
6860;SDS011;3469;47.060;15.460;2023-02-28T03:27:09;9.47;;;6.30;;
6860;SDS011;3469;47.060;15.460;2023-02-28T03:29:47;9.43;;;6.60;;
6860;SDS011;3469;47.060;15.460;2023-02-28T03:32:21;8.33;;;6.10;;
6860;SDS011;3469;47.060;15.460;2023-02-28T03:34:54;8.67;;;6.97;;
6860;SDS011;3469;47.060;15.460;2023-02-28T03:37:26;7.03;;;6.17;;
6860;SDS011;3469;47.060;15.460;2023-02-28T03:39:58;11.90;;;7.00;;
6860;SDS011;3469;47.060;15.460;2023-02-28T03:42:29;8.50;;;6.20;;
6860;SDS011;3469;47.060;15.460;2023-02-28T03:44:58;7.30;;;6.45;;
6860;SDS011;3469;47.060;15.460;2023-02-28T03:47:29;8.03;;;6.50;;
6860;SDS011;3469;47.060;15.460;2023-02-28T03:50:00;7.93;;;6.20;;
6860;SDS011;3469;47.060;15.460;2023-02-28T03:52:33;6.80;;;5.75;;
6860;SDS011;3469;47.060;15.460;2023-02-28T03:55:05;8.70;;;6.80;;
6860;SDS011;3469;47.060;15.460;2023-02-28T03:57:37;9.07;;;6.60;;
6860;SDS011;3469;47.060;15.460;2023-02-28T04:00:10;8.07;;;6.07;;
6860;SDS011;3469;47.060;15.460;2023-02-28T04:02:41;7.23;;;6.30;;
6860;SDS011;3469;47.060;15.460;2023-02-28T04:05:10;7.63;;;5.90;;
6860;SDS011;3469;47.060;15.460;2023-02-28T04:07:39;10.60;;;6.90;;
6860;SDS011;3469;47.060;15.460;2023-02-28T04:10:08;10.73;;;6.97;;
6860;SDS011;3469;47.060;15.460;2023-02-28T04:12:37;9.10;;;6.93;;
6860;SDS011;3469;47.060;15.460;2023-02-28T04:15:06;8.20;;;5.73;;
6860;SDS011;3469;47.060;15.460;2023-02-28T04:17:37;10.57;;;6.03;;
6860;SDS011;3469;47.060;15.460;2023-02-28T04:20:06;8.23;;;6.07;;
6860;SDS011;3469;47.060;15.460;2023-02-28T04:22:37;7.73;;;6.13;;
6860;SDS011;3469;47.060;15.460;2023-02-28T04:25:07;10.20;;;6.30;;
6860;SDS011;3469;47.060;15.460;2023-02-28T04:27:36;9.07;;;7.10;;
6860;SDS011;3469;47.060;15.460;2023-02-28T04:30:05;6.13;;;5.50;;
6860;SDS011;3469;47.060;15.460;2023-02-28T04:32:34;8.73;;;6.33;;
6860;SDS011;3469;47.060;15.460;2023-02-28T04:35:03;8.97;;;6.63;;
6860;SDS011;3469;47.060;15.460;2023-02-28T04:37:32;8.00;;;6.90;;
6860;SDS011;3469;47.060;15.460;2023-02-28T04:40:01;8.90;;;6.70;;
6860;SDS011;3469;47.060;15.460;2023-02-28T04:42:31;11.77;;;6.33;;
6860;SDS011;3469;47.060;15.460;2023-02-28T04:45:02;10.53;;;7.27;;
6860;SDS011;3469;47.060;15.460;2023-02-28T04:47:31;9.17;;;6.33;;
6860;SDS011;3469;47.060;15.460;2023-02-28T04:49:59;10.57;;;7.47;;
6860;SDS011;3469;47.060;15.460;2023-02-28T04:52:27;7.87;;;6.23;;
6860;SDS011;3469;47.060;15.460;2023-02-28T04:54:56;10.30;;;6.83;;
6860;SDS011;3469;47.060;15.460;2023-02-28T04:57:24;9.30;;;6.20;;
6860;SDS011;3469;47.060;15.460;2023-02-28T04:59:54;11.60;;;7.93;;
6860;SDS011;3469;47.060;15.460;2023-02-28T05:02:22;9.40;;;7.50;;
6860;SDS011;3469;47.060;15.460;2023-02-28T05:04:52;11.03;;;7.37;;
6860;SDS011;3469;47.060;15.460;2023-02-28T05:07:20;11.03;;;7.73;;
6860;SDS011;3469;47.060;15.460;2023-02-28T05:09:48;11.83;;;7.30;;
6860;SDS011;3469;47.060;15.460;2023-02-28T05:12:17;12.10;;;7.73;;
6860;SDS011;3469;47.060;15.460;2023-02-28T05:14:45;10.40;;;6.57;;
6860;SDS011;3469;47.060;15.460;2023-02-28T05:17:15;9.63;;;6.55;;
6860;SDS011;3469;47.060;15.460;2023-02-28T05:19:44;11.77;;;7.90;;
6860;SDS011;3469;47.060;15.460;2023-02-28T05:22:13;9.00;;;6.93;;
6860;SDS011;3469;47.060;15.460;2023-02-28T05:24:42;9.33;;;7.50;;
6860;SDS011;3469;47.060;15.460;2023-02-28T05:27:10;9.53;;;7.63;;
6860;SDS011;3469;47.060;15.460;2023-02-28T05:29:39;10.50;;;7.50;;
6860;SDS011;3469;47.060;15.460;2023-02-28T05:32:09;12.90;;;7.78;;
6860;SDS011;3469;47.060;15.460;2023-02-28T05:34:40;11.40;;;7.90;;
6860;SDS011;3469;47.060;15.460;2023-02-28T05:37:11;11.57;;;7.87;;
6860;SDS011;3469;47.060;15.460;2023-02-28T05:39:39;9.40;;;7.60;;
6860;SDS011;3469;47.060;15.460;2023-02-28T05:42:08;13.93;;;8.77;;
6860;SDS011;3469;47.060;15.460;2023-02-28T05:44:36;11.60;;;8.27;;
6860;SDS011;3469;47.060;15.460;2023-02-28T05:47:05;12.30;;;8.70;;
6860;SDS011;3469;47.060;15.460;2023-02-28T05:49:33;12.40;;;8.30;;
6860;SDS011;3469;47.060;15.460;2023-02-28T05:52:03;9.30;;;7.47;;
6860;SDS011;3469;47.060;15.460;2023-02-28T05:54:32;10.00;;;7.07;;
6860;SDS011;3469;47.060;15.460;2023-02-28T05:57:00;13.67;;;8.70;;
6860;SDS011;3469;47.060;15.460;2023-02-28T05:59:35;14.73;;;9.10;;
6860;SDS011;3469;47.060;15.460;2023-02-28T06:02:06;12.63;;;7.27;;
6860;SDS011;3469;47.060;15.460;2023-02-28T06:04:40;11.60;;;8.23;;
6860;SDS011;3469;47.060;15.460;2023-02-28T06:07:11;12.85;;;8.43;;
6860;SDS011;3469;47.060;15.460;2023-02-28T06:09:39;14.23;;;9.13;;
6860;SDS011;3469;47.060;15.460;2023-02-28T06:12:09;13.03;;;7.97;;
6860;SDS011;3469;47.060;15.460;2023-02-28T06:14:41;12.17;;;8.13;;
6860;SDS011;3469;47.060;15.460;2023-02-28T06:17:12;15.33;;;8.80;;
6860;SDS011;3469;47.060;15.460;2023-02-28T06:19:40;15.27;;;9.10;;
6860;SDS011;3469;47.060;15.460;2023-02-28T06:22:11;11.90;;;8.20;;
6860;SDS011;3469;47.060;15.460;2023-02-28T06:24:39;14.40;;;9.50;;
6860;SDS011;3469;47.060;15.460;2023-02-28T06:27:07;13.03;;;8.23;;
6860;SDS011;3469;47.060;15.460;2023-02-28T06:29:36;15.37;;;9.27;;
6860;SDS011;3469;47.060;15.460;2023-02-28T06:32:06;15.37;;;8.63;;
6860;SDS011;3469;47.060;15.460;2023-02-28T06:34:34;13.83;;;8.50;;
6860;SDS011;3469;47.060;15.460;2023-02-28T06:37:03;14.02;;;8.80;;
6860;SDS011;3469;47.060;15.460;2023-02-28T06:39:33;7.87;;;6.70;;
6860;SDS011;3469;47.060;15.460;2023-02-28T06:42:04;10.77;;;8.00;;
6860;SDS011;3469;47.060;15.460;2023-02-28T06:44:35;13.30;;;8.70;;
6860;SDS011;3469;47.060;15.460;2023-02-28T06:47:03;14.05;;;8.63;;
6860;SDS011;3469;47.060;15.460;2023-02-28T06:49:34;10.95;;;8.18;;
6860;SDS011;3469;47.060;15.460;2023-02-28T06:52:03;12.37;;;8.40;;
6860;SDS011;3469;47.060;15.460;2023-02-28T06:54:31;11.80;;;8.20;;
6860;SDS011;3469;47.060;15.460;2023-02-28T06:57:01;10.80;;;8.33;;
6860;SDS011;3469;47.060;15.460;2023-02-28T06:59:30;13.13;;;9.07;;
6860;SDS011;3469;47.060;15.460;2023-02-28T07:01:58;13.90;;;9.13;;
6860;SDS011;3469;47.060;15.460;2023-02-28T07:04:28;12.73;;;8.80;;
6860;SDS011;3469;47.060;15.460;2023-02-28T07:06:57;15.32;;;9.10;;
6860;SDS011;3469;47.060;15.460;2023-02-28T07:09:25;14.93;;;8.73;;
6860;SDS011;3469;47.060;15.460;2023-02-28T07:11:56;12.40;;;8.47;;
6860;SDS011;3469;47.060;15.460;2023-02-28T07:14:27;14.80;;;10.13;;
6860;SDS011;3469;47.060;15.460;2023-02-28T07:16:55;16.40;;;9.50;;
6860;SDS011;3469;47.060;15.460;2023-02-28T07:19:23;17.87;;;9.67;;
6860;SDS011;3469;47.060;15.460;2023-02-28T07:21:52;13.23;;;8.97;;
6860;SDS011;3469;47.060;15.460;2023-02-28T07:24:20;11.93;;;8.67;;
6860;SDS011;3469;47.060;15.460;2023-02-28T07:26:52;11.50;;;7.47;;
6860;SDS011;3469;47.060;15.460;2023-02-28T07:29:20;13.50;;;9.50;;
6860;SDS011;3469;47.060;15.460;2023-02-28T07:31:50;13.67;;;8.60;;
6860;SDS011;3469;47.060;15.460;2023-02-28T07:34:19;12.37;;;8.57;;
6860;SDS011;3469;47.060;15.460;2023-02-28T07:36:48;14.40;;;9.77;;
6860;SDS011;3469;47.060;15.460;2023-02-28T07:39:20;11.33;;;8.40;;
6860;SDS011;3469;47.060;15.460;2023-02-28T07:41:48;14.50;;;9.63;;
6860;SDS011;3469;47.060;15.460;2023-02-28T07:44:17;12.87;;;8.90;;
6860;SDS011;3469;47.060;15.460;2023-02-28T07:46:45;13.60;;;9.13;;
6860;SDS011;3469;47.060;15.460;2023-02-28T07:49:15;13.87;;;9.40;;
6860;SDS011;3469;47.060;15.460;2023-02-28T07:51:43;18.00;;;9.55;;
6860;SDS011;3469;47.060;15.460;2023-02-28T07:54:11;14.23;;;8.10;;
6860;SDS011;3469;47.060;15.460;2023-02-28T07:56:40;11.87;;;8.37;;
6860;SDS011;3469;47.060;15.460;2023-02-28T07:59:08;12.53;;;8.63;;
6860;SDS011;3469;47.060;15.460;2023-02-28T08:01:36;12.57;;;8.37;;
6860;SDS011;3469;47.060;15.460;2023-02-28T08:04:04;13.97;;;8.30;;
6860;SDS011;3469;47.060;15.460;2023-02-28T08:06:34;10.13;;;8.57;;
6860;SDS011;3469;47.060;15.460;2023-02-28T08:09:02;15.63;;;9.60;;
6860;SDS011;3469;47.060;15.460;2023-02-28T08:11:31;13.80;;;8.90;;
6860;SDS011;3469;47.060;15.460;2023-02-28T08:13:59;9.83;;;7.90;;
6860;SDS011;3469;47.060;15.460;2023-02-28T08:16:27;11.50;;;9.23;;
6860;SDS011;3469;47.060;15.460;2023-02-28T08:18:56;9.67;;;7.70;;
6860;SDS011;3469;47.060;15.460;2023-02-28T08:21:24;12.70;;;8.73;;
6860;SDS011;3469;47.060;15.460;2023-02-28T08:23:54;12.00;;;8.53;;
6860;SDS011;3469;47.060;15.460;2023-02-28T08:26:23;13.80;;;9.40;;
6860;SDS011;3469;47.060;15.460;2023-02-28T08:28:52;12.67;;;8.47;;
6860;SDS011;3469;47.060;15.460;2023-02-28T08:31:22;20.77;;;10.10;;
6860;SDS011;3469;47.060;15.460;2023-02-28T08:33:51;13.60;;;9.70;;
6860;SDS011;3469;47.060;15.460;2023-02-28T08:36:19;16.10;;;11.10;;
6860;SDS011;3469;47.060;15.460;2023-02-28T08:38:48;15.67;;;9.60;;
6860;SDS011;3469;47.060;15.460;2023-02-28T08:41:17;13.40;;;8.90;;
6860;SDS011;3469;47.060;15.460;2023-02-28T08:43:45;12.23;;;9.20;;
6860;SDS011;3469;47.060;15.460;2023-02-28T08:46:14;13.93;;;9.30;;
6860;SDS011;3469;47.060;15.460;2023-02-28T08:48:42;17.30;;;10.37;;
6860;SDS011;3469;47.060;15.460;2023-02-28T08:51:12;14.00;;;9.50;;
6860;SDS011;3469;47.060;15.460;2023-02-28T08:53:43;14.90;;;9.60;;
6860;SDS011;3469;47.060;15.460;2023-02-28T08:56:12;15.83;;;10.20;;
6860;SDS011;3469;47.060;15.460;2023-02-28T08:58:42;16.40;;;10.30;;
6860;SDS011;3469;47.060;15.460;2023-02-28T09:01:13;17.07;;;10.43;;
6860;SDS011;3469;47.060;15.460;2023-02-28T09:03:43;10.90;;;8.93;;
6860;SDS011;3469;47.060;15.460;2023-02-28T09:06:12;12.73;;;9.73;;
6860;SDS011;3469;47.060;15.460;2023-02-28T09:08:41;14.63;;;9.33;;
6860;SDS011;3469;47.060;15.460;2023-02-28T09:11:10;15.07;;;9.50;;
6860;SDS011;3469;47.060;15.460;2023-02-28T09:13:39;14.83;;;10.00;;
6860;SDS011;3469;47.060;15.460;2023-02-28T09:16:10;11.37;;;9.73;;
6860;SDS011;3469;47.060;15.460;2023-02-28T09:18:40;11.93;;;9.70;;
6860;SDS011;3469;47.060;15.460;2023-02-28T09:21:09;15.00;;;10.00;;
6860;SDS011;3469;47.060;15.460;2023-02-28T09:23:40;15.93;;;9.70;;
6860;SDS011;3469;47.060;15.460;2023-02-28T09:26:12;14.77;;;9.50;;
6860;SDS011;3469;47.060;15.460;2023-02-28T09:28:42;14.70;;;10.10;;
6860;SDS011;3469;47.060;15.460;2023-02-28T09:31:13;12.40;;;9.77;;
6860;SDS011;3469;47.060;15.460;2023-02-28T09:33:43;13.37;;;9.73;;
6860;SDS011;3469;47.060;15.460;2023-02-28T09:36:11;15.30;;;11.00;;
6860;SDS011;3469;47.060;15.460;2023-02-28T09:38:39;12.30;;;8.30;;
6860;SDS011;3469;47.060;15.460;2023-02-28T09:41:11;13.47;;;10.40;;
6860;SDS011;3469;47.060;15.460;2023-02-28T09:43:43;13.97;;;10.43;;
6860;SDS011;3469;47.060;15.460;2023-02-28T09:46:17;13.10;;;9.30;;
6860;SDS011;3469;47.060;15.460;2023-02-28T09:48:55;11.27;;;9.97;;
6860;SDS011;3469;47.060;15.460;2023-02-28T09:51:28;14.37;;;9.97;;
6860;SDS011;3469;47.060;15.460;2023-02-28T09:54:01;15.20;;;10.10;;
6860;SDS011;3469;47.060;15.460;2023-02-28T09:56:31;14.80;;;10.20;;
6860;SDS011;3469;47.060;15.460;2023-02-28T09:59:02;16.87;;;11.30;;
6860;SDS011;3469;47.060;15.460;2023-02-28T10:01:37;16.57;;;11.23;;
6860;SDS011;3469;47.060;15.460;2023-02-28T10:04:10;12.10;;;8.90;;
6860;SDS011;3469;47.060;15.460;2023-02-28T10:06:42;13.23;;;9.60;;
6860;SDS011;3469;47.060;15.460;2023-02-28T10:09:14;17.90;;;10.20;;
6860;SDS011;3469;47.060;15.460;2023-02-28T10:11:45;14.13;;;10.80;;
6860;SDS011;3469;47.060;15.460;2023-02-28T10:14:15;14.87;;;10.80;;
6860;SDS011;3469;47.060;15.460;2023-02-28T10:16:48;15.07;;;10.60;;
6860;SDS011;3469;47.060;15.460;2023-02-28T10:19:22;15.70;;;10.37;;
6860;SDS011;3469;47.060;15.460;2023-02-28T10:21:55;14.20;;;11.30;;
6860;SDS011;3469;47.060;15.460;2023-02-28T10:24:26;12.43;;;9.80;;
6860;SDS011;3469;47.060;15.460;2023-02-28T10:26:59;12.73;;;9.40;;
6860;SDS011;3469;47.060;15.460;2023-02-28T10:29:29;16.23;;;10.20;;
6860;SDS011;3469;47.060;15.460;2023-02-28T10:32:01;17.07;;;11.23;;
6860;SDS011;3469;47.060;15.460;2023-02-28T10:34:30;12.60;;;10.30;;
6860;SDS011;3469;47.060;15.460;2023-02-28T10:36:58;13.10;;;8.70;;
6860;SDS011;3469;47.060;15.460;2023-02-28T10:39:40;15.83;;;11.20;;
6860;SDS011;3469;47.060;15.460;2023-02-28T10:42:20;13.43;;;8.80;;
6860;SDS011;3469;47.060;15.460;2023-02-28T10:45:04;15.47;;;10.87;;
6860;SDS011;3469;47.060;15.460;2023-02-28T10:47:37;15.80;;;9.73;;
6860;SDS011;3469;47.060;15.460;2023-02-28T10:53:05;15.30;;;10.40;;
6860;SDS011;3469;47.060;15.460;2023-02-28T10:55:38;15.30;;;10.83;;
6860;SDS011;3469;47.060;15.460;2023-02-28T10:58:17;15.77;;;11.67;;
6860;SDS011;3469;47.060;15.460;2023-02-28T11:00:49;16.57;;;11.57;;
6860;SDS011;3469;47.060;15.460;2023-02-28T11:03:25;14.53;;;10.50;;
6860;SDS011;3469;47.060;15.460;2023-02-28T11:05:57;17.40;;;11.90;;
6860;SDS011;3469;47.060;15.460;2023-02-28T11:08:26;13.40;;;10.80;;
6860;SDS011;3469;47.060;15.460;2023-02-28T11:10:55;12.50;;;10.40;;
6860;SDS011;3469;47.060;15.460;2023-02-28T11:13:26;14.53;;;11.40;;
6860;SDS011;3469;47.060;15.460;2023-02-28T11:15:57;14.60;;;11.40;;
6860;SDS011;3469;47.060;15.460;2023-02-28T11:18:29;13.53;;;10.77;;
6860;SDS011;3469;47.060;15.460;2023-02-28T11:20:59;14.20;;;10.90;;
6860;SDS011;3469;47.060;15.460;2023-02-28T11:23:29;16.97;;;11.90;;
6860;SDS011;3469;47.060;15.460;2023-02-28T11:26:03;16.67;;;12.30;;
6860;SDS011;3469;47.060;15.460;2023-02-28T11:28:37;15.60;;;11.50;;
6860;SDS011;3469;47.060;15.460;2023-02-28T11:33:57;14.80;;;11.63;;
6860;SDS011;3469;47.060;15.460;2023-02-28T11:36:27;16.93;;;13.97;;
6860;SDS011;3469;47.060;15.460;2023-02-28T11:38:58;17.83;;;12.23;;
6860;SDS011;3469;47.060;15.460;2023-02-28T11:41:31;14.30;;;12.50;;
6860;SDS011;3469;47.060;15.460;2023-02-28T11:44:27;18.17;;;12.60;;
6860;SDS011;3469;47.060;15.460;2023-02-28T11:47:00;14.37;;;11.77;;
6860;SDS011;3469;47.060;15.460;2023-02-28T11:49:35;15.30;;;11.00;;
6860;SDS011;3469;47.060;15.460;2023-02-28T11:52:13;14.10;;;12.20;;
6860;SDS011;3469;47.060;15.460;2023-02-28T11:54:55;15.90;;;11.73;;
6860;SDS011;3469;47.060;15.460;2023-02-28T11:57:32;15.73;;;11.77;;
6860;SDS011;3469;47.060;15.460;2023-02-28T12:00:08;16.23;;;12.60;;
6860;SDS011;3469;47.060;15.460;2023-02-28T12:02:51;21.00;;;12.20;;
6860;SDS011;3469;47.060;15.460;2023-02-28T12:05:31;15.47;;;12.60;;
6860;SDS011;3469;47.060;15.460;2023-02-28T12:08:05;19.33;;;12.97;;
6860;SDS011;3469;47.060;15.460;2023-02-28T12:10:44;17.03;;;13.27;;
6860;SDS011;3469;47.060;15.460;2023-02-28T12:13:21;20.07;;;12.83;;
6860;SDS011;3469;47.060;15.460;2023-02-28T12:16:14;17.80;;;12.40;;
6860;SDS011;3469;47.060;15.460;2023-02-28T12:27:34;18.13;;;13.33;;
6860;SDS011;3469;47.060;15.460;2023-02-28T12:30:06;17.97;;;13.80;;
6860;SDS011;3469;47.060;15.460;2023-02-28T12:32:43;19.20;;;13.80;;
6860;SDS011;3469;47.060;15.460;2023-02-28T12:35:14;17.63;;;14.87;;
6860;SDS011;3469;47.060;15.460;2023-02-28T12:37:49;18.83;;;13.10;;
6860;SDS011;3469;47.060;15.460;2023-02-28T12:40:21;17.37;;;14.37;;
6860;SDS011;3469;47.060;15.460;2023-02-28T12:42:51;17.47;;;14.27;;
6860;SDS011;3469;47.060;15.460;2023-02-28T12:45:21;27.03;;;13.37;;
6860;SDS011;3469;47.060;15.460;2023-02-28T12:47:52;16.20;;;13.30;;
6860;SDS011;3469;47.060;15.460;2023-02-28T12:50:24;18.23;;;13.13;;
6860;SDS011;3469;47.060;15.460;2023-02-28T12:52:55;18.00;;;14.40;;
6860;SDS011;3469;47.060;15.460;2023-02-28T12:55:29;19.40;;;14.20;;
6860;SDS011;3469;47.060;15.460;2023-02-28T12:58:06;16.97;;;12.67;;
6860;SDS011;3469;47.060;15.460;2023-02-28T13:00:49;19.53;;;13.10;;
6860;SDS011;3469;47.060;15.460;2023-02-28T13:03:38;17.50;;;13.13;;
6860;SDS011;3469;47.060;15.460;2023-02-28T13:09:20;16.43;;;13.20;;
6860;SDS011;3469;47.060;15.460;2023-02-28T13:11:49;17.67;;;13.83;;
6860;SDS011;3469;47.060;15.460;2023-02-28T13:14:20;19.70;;;14.80;;
6860;SDS011;3469;47.060;15.460;2023-02-28T13:16:57;18.23;;;12.27;;
6860;SDS011;3469;47.060;15.460;2023-02-28T13:19:28;17.87;;;13.77;;
6860;SDS011;3469;47.060;15.460;2023-02-28T13:21:58;17.33;;;13.30;;
6860;SDS011;3469;47.060;15.460;2023-02-28T13:24:42;19.10;;;14.10;;
6860;SDS011;3469;47.060;15.460;2023-02-28T13:30:00;19.40;;;12.43;;
6860;SDS011;3469;47.060;15.460;2023-02-28T13:32:31;24.07;;;15.80;;
6860;SDS011;3469;47.060;15.460;2023-02-28T13:35:12;21.50;;;13.87;;
6860;SDS011;3469;47.060;15.460;2023-02-28T13:44:24;21.27;;;12.50;;
6860;SDS011;3469;47.060;15.460;2023-02-28T13:49:51;16.20;;;12.97;;
6860;SDS011;3469;47.060;15.460;2023-02-28T13:52:21;18.47;;;14.10;;
6860;SDS011;3469;47.060;15.460;2023-02-28T14:00:52;18.70;;;12.70;;
6860;SDS011;3469;47.060;15.460;2023-02-28T14:03:35;16.20;;;12.57;;
6860;SDS011;3469;47.060;15.460;2023-02-28T14:06:14;22.13;;;13.33;;
6860;SDS011;3469;47.060;15.460;2023-02-28T14:08:49;18.73;;;12.83;;
6860;SDS011;3469;47.060;15.460;2023-02-28T14:11:25;15.40;;;11.57;;
6860;SDS011;3469;47.060;15.460;2023-02-28T14:13:55;15.60;;;11.13;;
6860;SDS011;3469;47.060;15.460;2023-02-28T14:16:25;15.63;;;11.80;;
6860;SDS011;3469;47.060;15.460;2023-02-28T14:18:57;18.17;;;12.37;;
6860;SDS011;3469;47.060;15.460;2023-02-28T14:21:29;21.13;;;12.73;;
6860;SDS011;3469;47.060;15.460;2023-02-28T14:24:06;15.73;;;12.20;;
6860;SDS011;3469;47.060;15.460;2023-02-28T14:27:11;17.67;;;11.10;;
6860;SDS011;3469;47.060;15.460;2023-02-28T14:29:59;17.53;;;11.43;;
6860;SDS011;3469;47.060;15.460;2023-02-28T14:32:40;17.10;;;13.00;;
6860;SDS011;3469;47.060;15.460;2023-02-28T14:35:27;18.13;;;12.40;;
6860;SDS011;3469;47.060;15.460;2023-02-28T14:38:12;16.77;;;11.20;;
6860;SDS011;3469;47.060;15.460;2023-02-28T14:40:43;14.20;;;11.23;;
6860;SDS011;3469;47.060;15.460;2023-02-28T14:43:18;15.80;;;11.57;;
6860;SDS011;3469;47.060;15.460;2023-02-28T14:45:49;15.37;;;11.00;;
6860;SDS011;3469;47.060;15.460;2023-02-28T14:48:22;16.03;;;11.20;;
6860;SDS011;3469;47.060;15.460;2023-02-28T14:50:53;15.30;;;11.40;;
6860;SDS011;3469;47.060;15.460;2023-02-28T14:53:23;16.00;;;11.23;;
6860;SDS011;3469;47.060;15.460;2023-02-28T14:55:54;15.90;;;11.37;;
6860;SDS011;3469;47.060;15.460;2023-02-28T14:58:23;14.37;;;10.67;;
6860;SDS011;3469;47.060;15.460;2023-02-28T15:00:53;17.40;;;12.10;;
6860;SDS011;3469;47.060;15.460;2023-02-28T15:03:27;18.73;;;13.87;;
6860;SDS011;3469;47.060;15.460;2023-02-28T15:05:58;16.10;;;12.97;;
6860;SDS011;3469;47.060;15.460;2023-02-28T15:08:29;18.50;;;11.20;;
6860;SDS011;3469;47.060;15.460;2023-02-28T15:11:03;16.70;;;12.37;;
6860;SDS011;3469;47.060;15.460;2023-02-28T15:13:35;18.70;;;12.87;;
6860;SDS011;3469;47.060;15.460;2023-02-28T15:16:05;17.60;;;12.93;;
6860;SDS011;3469;47.060;15.460;2023-02-28T15:18:41;16.47;;;12.03;;
6860;SDS011;3469;47.060;15.460;2023-02-28T15:21:13;16.47;;;13.50;;
6860;SDS011;3469;47.060;15.460;2023-02-28T15:23:45;19.93;;;13.10;;
6860;SDS011;3469;47.060;15.460;2023-02-28T15:26:16;16.70;;;12.93;;
6860;SDS011;3469;47.060;15.460;2023-02-28T15:28:48;20.77;;;13.10;;
6860;SDS011;3469;47.060;15.460;2023-02-28T15:31:19;16.67;;;11.70;;
6860;SDS011;3469;47.060;15.460;2023-02-28T15:33:55;18.80;;;12.77;;
6860;SDS011;3469;47.060;15.460;2023-02-28T15:36:25;22.80;;;12.23;;
6860;SDS011;3469;47.060;15.460;2023-02-28T15:38:55;21.90;;;12.60;;
6860;SDS011;3469;47.060;15.460;2023-02-28T15:41:41;21.97;;;13.50;;
6860;SDS011;3469;47.060;15.460;2023-02-28T15:44:17;17.90;;;12.07;;
6860;SDS011;3469;47.060;15.460;2023-02-28T15:46:54;16.90;;;12.27;;
6860;SDS011;3469;47.060;15.460;2023-02-28T15:49:29;22.33;;;14.07;;
6860;SDS011;3469;47.060;15.460;2023-02-28T15:52:12;17.17;;;11.50;;
6860;SDS011;3469;47.060;15.460;2023-02-28T15:54:42;16.53;;;11.17;;